createdAt,value
2023-01-28T00:02:03.128Z,6.73
2023-01-28T00:04:32.161Z,6.23
2023-01-28T00:06:58.811Z,6.03
2023-01-28T00:09:25.460Z,5.97
2023-01-28T00:11:52.046Z,5.00
2023-01-28T00:14:18.633Z,3.80
2023-01-28T00:16:45.402Z,5.60
2023-01-28T00:19:11.987Z,5.40
2023-01-28T00:21:38.610Z,6.30
2023-01-28T00:24:07.072Z,5.97
2023-01-28T00:26:33.726Z,6.03
2023-01-28T00:29:02.397Z,5.93
2023-01-28T00:31:31.365Z,5.73
2023-01-28T00:34:00.505Z,5.27
2023-01-28T00:36:27.633Z,5.53
2023-01-28T00:38:56.817Z,5.77
2023-01-28T00:41:25.993Z,5.03
2023-01-28T00:43:58.074Z,5.07
2023-01-28T00:46:28.444Z,5.03
2023-01-28T00:48:55.565Z,4.33
2023-01-28T00:51:24.657Z,4.67
2023-01-28T00:53:51.279Z,5.20
2023-01-28T00:56:19.616Z,5.83
2023-01-28T00:58:46.697Z,5.50
2023-01-28T01:01:17.136Z,5.07
2023-01-28T01:03:44.197Z,5.37
2023-01-28T01:06:14.893Z,6.37
2023-01-28T01:08:43.044Z,5.73
2023-01-28T01:11:12.023Z,5.83
2023-01-28T01:13:41.438Z,4.73
2023-01-28T01:16:11.349Z,5.53
2023-01-28T01:18:42.041Z,5.03
2023-01-28T01:21:11.429Z,5.20
2023-01-28T01:23:38.028Z,5.27
2023-01-28T01:26:06.174Z,6.03
2023-01-28T01:28:33.417Z,5.70
2023-01-28T01:31:02.552Z,5.43
2023-01-28T01:33:37.550Z,6.00
2023-01-28T01:36:06.329Z,5.90
2023-01-28T01:38:32.910Z,5.10
2023-01-28T01:41:00.819Z,4.20
2023-01-28T01:43:50.878Z,5.97
2023-01-28T01:46:23.094Z,5.07
2023-01-28T01:48:50.076Z,5.37
2023-01-28T01:51:21.907Z,5.77
2023-01-28T01:53:52.218Z,5.47
2023-01-28T01:56:23.081Z,6.10
2023-01-28T01:58:53.675Z,6.07
2023-01-28T02:01:25.572Z,5.20
2023-01-28T02:04:08.896Z,6.17
2023-01-28T02:06:37.878Z,6.30
2023-01-28T02:09:23.846Z,6.47
2023-01-28T02:11:56.481Z,6.47
2023-01-28T02:14:31.498Z,6.87
2023-01-28T02:17:01.599Z,7.40
2023-01-28T02:19:37.226Z,6.77
2023-01-28T02:22:40.334Z,6.97
2023-01-28T02:25:34.867Z,6.73
2023-01-28T02:28:15.014Z,7.50
2023-01-28T02:30:54.727Z,7.87
2023-01-28T02:33:59.582Z,7.10
2023-01-28T02:36:26.090Z,6.93
2023-01-28T02:38:54.701Z,6.87
2023-01-28T02:41:29.078Z,7.43
2023-01-28T02:43:55.657Z,6.97
2023-01-28T02:46:43.920Z,7.37
2023-01-28T02:49:16.070Z,7.17
2023-01-28T02:52:09.393Z,7.77
2023-01-28T02:54:38.888Z,6.77
2023-01-28T02:57:05.433Z,7.70
2023-01-28T02:59:41.756Z,6.47
2023-01-28T03:02:42.238Z,7.13
2023-01-28T03:05:22.514Z,7.30
2023-01-28T03:07:50.322Z,7.00
2023-01-28T03:10:20.799Z,7.27
2023-01-28T03:13:10.693Z,8.00
2023-01-28T03:16:04.837Z,7.53
2023-01-28T03:19:06.247Z,8.27
2023-01-28T03:21:55.567Z,7.57
2023-01-28T03:24:43.711Z,7.47
2023-01-28T03:27:35.141Z,7.73
2023-01-28T03:30:26.401Z,7.23
2023-01-28T03:33:15.146Z,8.47
2023-01-28T03:36:00.728Z,8.07
2023-01-28T03:38:34.046Z,8.03
2023-01-28T03:41:03.838Z,7.47
2023-01-28T03:43:31.494Z,8.00
2023-01-28T03:45:58.509Z,7.77
2023-01-28T03:48:27.440Z,6.73
2023-01-28T03:50:55.955Z,7.80
2023-01-28T03:53:25.027Z,7.27
2023-01-28T03:55:53.231Z,7.00
2023-01-28T03:58:20.964Z,7.50
2023-01-28T04:00:48.022Z,8.23
2023-01-28T04:03:17.058Z,7.77
2023-01-28T04:05:58.919Z,7.80
2023-01-28T04:08:25.778Z,6.50
2023-01-28T04:10:54.616Z,7.90
2023-01-28T04:13:26.546Z,8.03
2023-01-28T04:15:53.187Z,8.03
2023-01-28T04:18:20.950Z,7.83
2023-01-28T04:20:50.054Z,7.00
2023-01-28T04:23:16.610Z,8.33
2023-01-28T04:25:43.191Z,8.03
2023-01-28T04:28:12.038Z,8.33
2023-01-28T04:30:38.624Z,7.67
2023-01-28T04:33:07.406Z,7.37
2023-01-28T04:35:33.992Z,7.93
2023-01-28T04:38:03.139Z,7.40
2023-01-28T04:40:32.313Z,8.07
2023-01-28T04:42:59.049Z,7.67
2023-01-28T04:45:25.645Z,7.63
2023-01-28T04:47:52.219Z,7.77
2023-01-28T04:50:18.865Z,8.10
2023-01-28T04:52:45.451Z,7.93
2023-01-28T04:55:12.186Z,7.20
2023-01-28T04:57:38.768Z,7.77
2023-01-28T05:00:06.333Z,7.70
2023-01-28T05:02:33.209Z,7.93
2023-01-28T05:05:01.589Z,7.47
2023-01-28T05:07:30.437Z,7.90
2023-01-28T05:09:59.458Z,8.23
2023-01-28T05:12:26.327Z,8.17
2023-01-28T05:14:52.888Z,7.43
2023-01-28T05:17:19.760Z,7.87
2023-01-28T05:19:46.421Z,7.90
2023-01-28T05:22:12.961Z,8.03
2023-01-28T05:24:39.501Z,7.27
2023-01-28T05:27:07.521Z,8.03
2023-01-28T05:29:34.149Z,8.30
2023-01-28T05:32:00.689Z,8.03
2023-01-28T05:34:27.249Z,8.90
2023-01-28T05:36:53.883Z,8.50
2023-01-28T05:39:20.444Z,8.57
2023-01-28T05:41:49.526Z,7.27
2023-01-28T05:44:16.079Z,8.07
2023-01-28T05:46:46.691Z,7.90
2023-01-28T05:49:13.672Z,8.30
2023-01-28T05:51:41.203Z,8.10
2023-01-28T05:54:10.480Z,7.90
2023-01-28T05:56:37.162Z,8.90
2023-01-28T05:59:05.537Z,7.03
2023-01-28T06:01:34.880Z,8.17
2023-01-28T06:04:01.433Z,8.37
2023-01-28T06:06:28.062Z,8.73
2023-01-28T06:08:54.613Z,8.83
2023-01-28T06:11:23.943Z,7.70
2023-01-28T06:13:53.104Z,7.60
2023-01-28T06:16:19.966Z,8.47
2023-01-28T06:18:46.528Z,8.33
2023-01-28T06:21:16.246Z,7.23
2023-01-28T06:23:42.841Z,7.53
2023-01-28T06:26:09.383Z,6.60
2023-01-28T06:28:36.082Z,7.00
2023-01-28T06:31:02.701Z,7.60
2023-01-28T06:33:29.573Z,7.47
2023-01-28T06:35:56.338Z,7.33
2023-01-28T06:38:25.964Z,7.90
2023-01-28T06:40:55.916Z,7.13
2023-01-28T06:43:27.994Z,7.50
2023-01-28T06:45:55.353Z,7.33
2023-01-28T06:48:22.426Z,8.40
2023-01-28T06:50:49.603Z,7.77
2023-01-28T06:53:17.033Z,7.57
2023-01-28T06:55:44.093Z,7.80
2023-01-28T06:58:10.920Z,7.93
2023-01-28T07:00:37.898Z,8.30
2023-01-28T07:03:05.338Z,8.27
2023-01-28T07:05:32.201Z,7.60
2023-01-28T07:07:58.845Z,7.77
2023-01-28T07:10:25.568Z,8.37
2023-01-28T07:12:52.308Z,7.60
2023-01-28T07:15:19.069Z,7.90
2023-01-28T07:17:45.992Z,8.40
2023-01-28T07:20:15.636Z,7.60
2023-01-28T07:22:45.699Z,7.63
2023-01-28T07:25:16.033Z,8.23
2023-01-28T07:27:53.588Z,7.70
2023-01-28T07:30:21.464Z,8.17
2023-01-28T07:32:53.596Z,7.97
2023-01-28T07:35:20.141Z,9.57
2023-01-28T07:37:57.688Z,9.80
2023-01-28T07:40:30.623Z,11.97
2023-01-28T07:42:57.691Z,10.40
2023-01-28T07:45:25.794Z,8.97
2023-01-28T07:48:00.349Z,9.17
2023-01-28T07:50:29.283Z,9.27
2023-01-28T07:53:01.777Z,9.97
2023-01-28T07:55:31.170Z,8.67
2023-01-28T07:58:03.443Z,8.10
2023-01-28T08:00:32.493Z,9.13
2023-01-28T08:03:04.095Z,7.97
2023-01-28T08:05:41.584Z,8.83
2023-01-28T08:08:09.906Z,8.47
2023-01-28T08:10:40.092Z,9.03
2023-01-28T08:13:07.519Z,8.20
2023-01-28T08:15:35.378Z,8.67
2023-01-28T08:18:05.530Z,8.87
2023-01-28T08:20:36.919Z,8.00
2023-01-28T08:23:14.104Z,9.93
2023-01-28T08:25:41.448Z,9.43
2023-01-28T08:28:09.404Z,9.73
2023-01-28T08:30:38.229Z,8.37
2023-01-28T08:33:06.323Z,8.30
2023-01-28T08:35:36.339Z,9.03
2023-01-28T08:38:04.054Z,9.47
2023-01-28T08:40:31.461Z,7.17
2023-01-28T08:43:01.007Z,9.27
2023-01-28T08:45:30.637Z,6.83
2023-01-28T08:48:05.604Z,8.17
2023-01-28T08:50:37.457Z,8.60
2023-01-28T08:53:07.263Z,8.77
2023-01-28T08:55:34.551Z,8.83
2023-01-28T08:58:11.356Z,8.80
2023-01-28T09:00:38.545Z,7.93
2023-01-28T09:03:06.381Z,8.00
2023-01-28T09:05:35.912Z,9.13
2023-01-28T09:08:08.443Z,7.83
2023-01-28T09:10:37.593Z,3.47
2023-01-28T09:13:12.959Z,7.77
2023-01-28T09:15:42.486Z,6.90
2023-01-28T09:18:09.094Z,7.13
2023-01-28T09:20:35.857Z,8.33
2023-01-28T09:23:02.568Z,7.83
2023-01-28T09:25:29.738Z,7.40
2023-01-28T09:27:57.244Z,7.80
2023-01-28T09:30:23.982Z,7.60
2023-01-28T09:32:55.499Z,7.87
2023-01-28T09:35:22.865Z,8.13
2023-01-28T09:37:49.759Z,8.10
2023-01-28T09:40:21.627Z,7.10
2023-01-28T09:42:59.548Z,7.80
2023-01-28T09:45:41.056Z,7.27
2023-01-28T09:48:21.696Z,7.20
2023-01-28T09:50:54.322Z,7.63
2023-01-28T09:53:43.773Z,7.13
2023-01-28T09:56:16.053Z,7.33
2023-01-28T09:58:43.393Z,6.03
2023-01-28T10:01:27.669Z,8.20
2023-01-28T10:04:13.662Z,8.00
2023-01-28T10:07:00.184Z,8.57
2023-01-28T10:09:48.711Z,9.77
2023-01-28T10:12:37.027Z,7.90
2023-01-28T10:15:25.401Z,7.40
2023-01-28T10:18:07.200Z,7.97
2023-01-28T10:20:49.693Z,8.80
2023-01-28T10:23:22.679Z,8.53
2023-01-28T10:25:49.506Z,7.83
2023-01-28T10:28:24.167Z,7.30
2023-01-28T10:30:51.749Z,7.47
2023-01-28T10:33:35.845Z,8.70
2023-01-28T10:36:03.175Z,8.23
2023-01-28T10:38:33.755Z,7.90
2023-01-28T10:41:07.284Z,5.87
2023-01-28T10:43:40.727Z,4.27
2023-01-28T10:46:30.088Z,5.80
2023-01-28T10:49:13.332Z,5.23
2023-01-28T10:51:42.148Z,4.10
2023-01-28T10:54:24.357Z,5.20
2023-01-28T10:56:55.794Z,5.43
2023-01-28T10:59:30.042Z,5.83
2023-01-28T11:01:59.707Z,6.50
2023-01-28T11:04:32.098Z,5.37
2023-01-28T11:07:18.659Z,5.83
2023-01-28T11:09:48.722Z,5.37
2023-01-28T11:12:27.589Z,7.10
2023-01-28T11:14:58.629Z,6.50
2023-01-28T11:17:29.327Z,4.80
2023-01-28T11:20:01.143Z,4.97
2023-01-28T11:22:33.512Z,4.63
2023-01-28T11:25:02.924Z,4.87
2023-01-28T11:27:31.953Z,4.93
2023-01-28T11:30:04.751Z,4.43
2023-01-28T11:32:31.704Z,4.13
2023-01-28T11:35:01.293Z,4.10
2023-01-28T11:37:29.393Z,4.70
2023-01-28T11:40:23.191Z,4.57
2023-01-28T11:43:00.452Z,4.20
2023-01-28T11:45:53.453Z,4.80
2023-01-28T11:48:27.026Z,4.67
2023-01-28T11:51:04.718Z,4.20
2023-01-28T11:54:16.469Z,4.07
2023-01-28T11:57:01.693Z,4.23
2023-01-28T11:59:34.468Z,4.67
2023-01-28T12:02:35.081Z,4.40
2023-01-28T12:05:33.897Z,4.00
2023-01-28T12:08:25.589Z,5.67
2023-01-28T12:11:46.769Z,5.27
2023-01-28T12:14:22.380Z,4.57
2023-01-28T12:16:59.412Z,4.97
2023-01-28T12:19:42.191Z,5.40
2023-01-28T12:22:34.703Z,5.00
2023-01-28T12:25:01.283Z,4.43
2023-01-28T12:27:30.806Z,5.03
2023-01-28T12:30:20.045Z,5.03
2023-01-28T12:32:52.899Z,4.88
2023-01-28T12:35:33.103Z,5.15
2023-01-28T12:38:03.289Z,5.03
2023-01-28T12:40:48.724Z,4.97
2023-01-28T12:43:23.472Z,5.20
2023-01-28T12:46:08.930Z,5.00
2023-01-28T12:49:10.375Z,5.23
2023-01-28T12:51:36.944Z,4.72
2023-01-28T12:54:12.184Z,4.97
2023-01-28T12:56:45.375Z,5.38
2023-01-28T12:59:30.331Z,4.95
2023-01-28T13:02:12.246Z,4.30
2023-01-28T13:05:11.485Z,4.90
2023-01-28T13:07:56.582Z,5.18
2023-01-28T13:10:35.432Z,5.10
2023-01-28T13:13:04.313Z,5.13
2023-01-28T13:15:31.829Z,4.93
2023-01-28T13:18:04.740Z,5.25
2023-01-28T13:20:54.148Z,5.70
2023-01-28T13:23:26.288Z,5.35
2023-01-28T13:25:55.115Z,6.53
2023-01-28T13:28:33.037Z,5.00
2023-01-28T13:31:08.631Z,6.22
2023-01-28T13:33:39.169Z,6.15
2023-01-28T13:36:35.021Z,5.70
2023-01-28T13:39:15.956Z,6.32
2023-01-28T13:41:54.914Z,6.32
2023-01-28T13:44:34.973Z,5.30
2023-01-28T13:47:07.656Z,5.35
2023-01-28T13:49:39.002Z,8.63
2023-01-28T13:52:24.592Z,9.65
2023-01-28T13:54:54.783Z,5.20
2023-01-28T13:58:01.800Z,7.97
2023-01-28T14:01:05.912Z,7.75
2023-01-28T14:04:03.562Z,6.72
2023-01-28T14:06:56.957Z,6.45
2023-01-28T14:09:31.645Z,6.05
2023-01-28T14:12:23.191Z,5.28
2023-01-28T14:14:58.778Z,5.55
2023-01-28T14:17:47.612Z,6.25
2023-01-28T14:20:31.178Z,4.95
2023-01-28T14:23:14.367Z,6.30
2023-01-28T14:25:52.026Z,5.97
2023-01-28T14:28:33.542Z,5.30
2023-01-28T14:31:09.258Z,4.47
2023-01-28T14:33:37.158Z,5.05
2023-01-28T14:36:06.986Z,7.57
2023-01-28T14:38:44.915Z,4.80
2023-01-28T14:41:29.387Z,4.18
2023-01-28T14:43:57.115Z,5.65
2023-01-28T14:47:06.032Z,4.93
2023-01-28T14:49:55.788Z,5.03
2023-01-28T14:52:42.326Z,4.63
2023-01-28T14:55:40.655Z,4.77
2023-01-28T14:58:17.564Z,4.55
2023-01-28T15:00:55.160Z,5.13
2023-01-28T15:03:25.401Z,5.20
2023-01-28T15:06:14.323Z,5.37
2023-01-28T15:08:43.205Z,5.20
2023-01-28T15:11:17.832Z,7.90
2023-01-28T15:13:50.913Z,6.22
2023-01-28T15:16:29.088Z,5.30
2023-01-28T15:18:57.435Z,5.63
2023-01-28T15:21:26.843Z,5.55
2023-01-28T15:23:59.952Z,5.40
2023-01-28T15:26:31.215Z,5.73
2023-01-28T15:29:00.417Z,7.30
2023-01-28T15:31:32.824Z,5.50
2023-01-28T15:34:11.152Z,5.33
2023-01-28T15:36:37.882Z,5.60
2023-01-28T15:39:13.859Z,7.30
2023-01-28T15:41:47.462Z,5.18
2023-01-28T15:44:35.104Z,5.07
2023-01-28T15:47:07.390Z,5.37
2023-01-28T15:49:43.351Z,5.43
2023-01-28T15:52:10.600Z,5.50
2023-01-28T15:54:40.693Z,5.40
2023-01-28T15:57:20.736Z,5.60
2023-01-28T15:59:51.202Z,5.23
2023-01-28T16:02:22.269Z,5.13
2023-01-28T16:05:03.740Z,5.03
2023-01-28T16:07:42.682Z,5.13
2023-01-28T16:10:21.547Z,5.60
2023-01-28T16:12:53.091Z,5.57
2023-01-28T16:15:23.128Z,6.27
2023-01-28T16:17:55.095Z,5.53
2023-01-28T16:20:26.377Z,6.07
2023-01-28T16:23:00.065Z,6.10
2023-01-28T16:25:29.639Z,5.87
2023-01-28T16:28:00.929Z,5.80
2023-01-28T16:30:31.178Z,5.47
2023-01-28T16:32:58.309Z,6.20
2023-01-28T16:35:47.394Z,5.50
2023-01-28T16:38:17.749Z,6.40
2023-01-28T16:40:48.345Z,5.97
2023-01-28T16:43:16.475Z,6.40
2023-01-28T16:45:43.709Z,6.10
2023-01-28T16:48:13.385Z,6.50
2023-01-28T16:50:42.035Z,6.70
2023-01-28T16:53:20.240Z,6.57
2023-01-28T16:55:49.516Z,6.67
2023-01-28T16:58:20.075Z,7.30
2023-01-28T17:00:47.178Z,8.57
2023-01-28T17:03:13.919Z,8.20
2023-01-28T17:05:42.783Z,9.00
2023-01-28T17:08:09.575Z,8.83
2023-01-28T17:10:36.340Z,9.33
2023-01-28T17:13:03.132Z,9.80
2023-01-28T17:15:34.197Z,9.93
2023-01-28T17:18:00.945Z,11.03
2023-01-28T17:20:27.711Z,10.77
2023-01-28T17:22:54.305Z,10.27
2023-01-28T17:25:20.974Z,9.87
2023-01-28T17:27:49.443Z,8.93
2023-01-28T17:30:19.618Z,12.50
2023-01-28T17:32:46.211Z,14.57
2023-01-28T17:35:12.934Z,11.70
2023-01-28T17:37:39.554Z,19.10
2023-01-28T17:40:06.847Z,16.20
2023-01-28T17:42:33.383Z,13.70
2023-01-28T17:45:03.223Z,12.20
2023-01-28T17:47:33.090Z,11.03
2023-01-28T17:49:59.803Z,9.10
2023-01-28T17:52:26.780Z,8.93
2023-01-28T17:54:53.452Z,8.80
2023-01-28T17:57:20.523Z,8.63
2023-01-28T17:59:49.684Z,8.53
2023-01-28T18:02:16.849Z,8.17
2023-01-28T18:04:43.671Z,7.90
2023-01-28T18:07:13.803Z,8.07
2023-01-28T18:09:42.229Z,8.50
2023-01-28T18:12:11.014Z,8.23
2023-01-28T18:14:38.648Z,7.47
2023-01-28T18:17:08.972Z,8.47
2023-01-28T18:19:35.640Z,9.20
2023-01-28T18:22:02.231Z,8.10
2023-01-28T18:24:30.416Z,8.60
2023-01-28T18:27:03.301Z,8.40
2023-01-28T18:29:31.465Z,10.27
2023-01-28T18:31:59.675Z,13.13
2023-01-28T18:34:31.724Z,12.57
2023-01-28T18:37:03.506Z,13.57
2023-01-28T18:39:31.119Z,12.73
2023-01-28T18:41:59.177Z,11.27
2023-01-28T18:44:28.381Z,10.23
2023-01-28T18:46:54.975Z,9.60
2023-01-28T18:49:22.005Z,10.97
2023-01-28T18:51:50.863Z,10.47
2023-01-28T18:54:17.657Z,9.63
2023-01-28T18:56:44.248Z,9.83
2023-01-28T18:59:13.022Z,9.47
2023-01-28T19:01:42.834Z,9.80
2023-01-28T19:04:10.518Z,10.17
2023-01-28T19:06:37.299Z,9.87
2023-01-28T19:09:06.654Z,9.57
2023-01-28T19:11:38.507Z,9.97
2023-01-28T19:14:05.191Z,10.17
2023-01-28T19:16:32.048Z,9.53
2023-01-28T19:19:00.584Z,9.27
2023-01-28T19:21:29.194Z,9.03
2023-01-28T19:23:57.748Z,9.47
2023-01-28T19:26:29.847Z,9.47
2023-01-28T19:28:57.061Z,9.00
2023-01-28T19:31:24.791Z,8.27
2023-01-28T19:34:01.339Z,9.30
2023-01-28T19:36:30.776Z,9.93
2023-01-28T19:39:01.270Z,8.77
2023-01-28T19:41:28.937Z,9.73
2023-01-28T19:43:58.971Z,9.40
2023-01-28T19:46:26.120Z,9.93
2023-01-28T19:48:53.446Z,10.03
2023-01-28T19:51:20.591Z,8.77
2023-01-28T19:53:52.946Z,9.70
2023-01-28T19:56:21.397Z,10.73
2023-01-28T19:58:48.236Z,10.70
2023-01-28T20:01:20.561Z,10.93
2023-01-28T20:03:52.713Z,11.93
2023-01-28T20:06:19.538Z,11.37
2023-01-28T20:08:52.102Z,11.87
2023-01-28T20:11:18.858Z,11.00
2023-01-28T20:13:51.572Z,11.50
2023-01-28T20:16:26.816Z,11.17
2023-01-28T20:19:01.172Z,11.20
2023-01-28T20:21:29.817Z,11.60
2023-01-28T20:23:58.352Z,11.67
2023-01-28T20:26:29.542Z,10.80
2023-01-28T20:29:04.523Z,11.73
2023-01-28T20:31:32.762Z,12.27
2023-01-28T20:34:00.245Z,11.40
2023-01-28T20:36:27.352Z,11.83
2023-01-28T20:38:53.932Z,10.97
2023-01-28T20:41:23.676Z,11.70
2023-01-28T20:43:54.616Z,11.40
2023-01-28T20:46:27.612Z,13.03
2023-01-28T20:48:58.162Z,12.50
2023-01-28T20:51:27.286Z,11.70
2023-01-28T20:53:54.881Z,12.00
2023-01-28T20:56:25.537Z,11.80
2023-01-28T20:58:57.249Z,12.00
2023-01-28T21:01:29.927Z,11.93
2023-01-28T21:03:56.826Z,12.57
2023-01-28T21:06:29.219Z,11.67
2023-01-28T21:08:57.103Z,11.63
2023-01-28T21:11:25.574Z,11.37
2023-01-28T21:13:55.647Z,12.27
2023-01-28T21:16:23.320Z,11.43
2023-01-28T21:18:50.450Z,11.33
2023-01-28T21:21:22.603Z,11.87
2023-01-28T21:23:49.799Z,11.80
2023-01-28T21:26:17.280Z,12.80
2023-01-28T21:28:45.037Z,11.80
2023-01-28T21:31:18.124Z,11.93
2023-01-28T21:33:49.576Z,12.17
2023-01-28T21:36:17.683Z,12.23
2023-01-28T21:38:45.366Z,14.57
2023-01-28T21:41:12.081Z,12.00
2023-01-28T21:43:40.890Z,12.77
2023-01-28T21:46:09.980Z,12.47
2023-01-28T21:48:36.612Z,12.83
2023-01-28T21:51:26.626Z,13.67
2023-01-28T21:53:53.449Z,13.37
2023-01-28T21:56:20.225Z,12.73
2023-01-28T21:59:05.309Z,14.37
2023-01-28T22:01:32.313Z,13.43
2023-01-28T22:03:59.097Z,13.40
2023-01-28T22:06:25.739Z,13.23
2023-01-28T22:08:54.997Z,13.23
2023-01-28T22:11:21.622Z,14.13
2023-01-28T22:13:49.012Z,13.87
2023-01-28T22:16:19.012Z,13.73
2023-01-28T22:18:46.767Z,14.60
2023-01-28T22:21:14.581Z,14.17
2023-01-28T22:23:41.254Z,14.33
2023-01-28T22:26:10.117Z,13.67
2023-01-28T22:28:37.902Z,13.70
2023-01-28T22:31:09.735Z,13.10
2023-01-28T22:33:37.269Z,14.17
2023-01-28T22:36:13.830Z,14.53
2023-01-28T22:38:42.279Z,13.63
2023-01-28T22:41:19.184Z,13.40
2023-01-28T22:43:48.901Z,13.27
2023-01-28T22:46:16.398Z,13.63
2023-01-28T22:48:46.049Z,13.40
2023-01-28T22:51:21.992Z,13.83
2023-01-28T22:53:49.960Z,14.40
2023-01-28T22:56:18.620Z,13.57
2023-01-28T22:58:45.914Z,13.43
2023-01-28T23:01:15.541Z,13.77
2023-01-28T23:03:49.734Z,15.30
2023-01-28T23:06:18.807Z,13.60
2023-01-28T23:08:46.290Z,13.90
2023-01-28T23:11:25.520Z,14.60
2023-01-28T23:14:33.148Z,13.73
2023-01-28T23:17:18.420Z,14.00
2023-01-28T23:20:03.380Z,14.60
2023-01-28T23:22:52.355Z,13.77
2023-01-28T23:25:20.067Z,13.53
2023-01-28T23:27:46.728Z,14.40
2023-01-28T23:30:17.232Z,15.10
2023-01-28T23:32:49.604Z,15.73
2023-01-28T23:35:17.313Z,15.10
2023-01-28T23:37:43.838Z,13.73
2023-01-28T23:40:15.027Z,14.70
2023-01-28T23:42:44.769Z,14.17
2023-01-28T23:45:11.711Z,15.30
2023-01-28T23:47:38.342Z,14.30
2023-01-28T23:50:07.381Z,14.70
2023-01-28T23:52:36.472Z,15.80
2023-01-28T23:55:03.310Z,14.83
2023-01-28T23:57:32.116Z,14.93
2023-01-28T23:59:58.675Z,14.80
